<?xml version="1.0" encoding="UTF-8" standalone="no" ?>
<gpx xmlns="http://www.topografix.com/GPX/1/1" xmlns:xsi="http://www.w3.org/2001/XMLSchema-instance" xsi:schemaLocation="http://www.topografix.com/GPX/1/1 http://www.topografix.com/GPX/1/1/gpx.xsd" version="1.1" creator="VisuGPX - https://www.visugpx.com">
  <metadata>
    <name>Du Chiromme à la Mue</name>
  </metadata>
  <wpt lat="49.23027" lon="-0.46358">
    <ele>41</ele>
    <name><![CDATA[Stationnement face au centre d'animation de Lasson]]></name>
  </wpt>
  <wpt lat="49.23156" lon="-0.46961">
    <ele>49</ele>
    <name><![CDATA[Calvaire de Lasson]]></name>
  </wpt>
  <wpt lat="49.23621" lon="-0.48582">
    <ele>43</ele>
    <name><![CDATA[Pont sur le Chiromme]]></name>
  </wpt>
  <wpt lat="49.22734" lon="-0.49264">
    <ele>46</ele>
    <name><![CDATA[Pont sur le Chiromme à Bray (D 126)]]></name>
  </wpt>
  <wpt lat="49.22157" lon="-0.47653">
    <ele>43</ele>
    <name><![CDATA[Route goudronnée]]></name>
  </wpt>
  <wpt lat="49.21935" lon="-0.47272">
    <ele>44</ele>
    <name><![CDATA[La ferme de Vauculay. Passage interdit. ]]></name>
  </wpt>
  <wpt lat="49.21099" lon="-0.47551">
    <ele>54</ele>
    <name><![CDATA[Rue de l'église Saint-Ouen à Rots (D 170)]]></name>
  </wpt>
  <wpt lat="49.21623" lon="-0.46775">
    <ele>50</ele>
    <name><![CDATA[Le Chemin du Ricaras en direction de Rosel]]></name>
  </wpt>
  <wpt lat="49.21805" lon="-0.46779">
    <ele>47</ele>
    <name><![CDATA[Chemin du Ricaras. Après la]]></name>
  </wpt>
  <wpt lat="49.22785" lon="-0.45877">
    <ele>46</ele>
    <name><![CDATA[Rue Boulay (D 126)]]></name>
  </wpt>
  <wpt lat="49.23028" lon="-0.46353">
    <ele>41</ele>
    <name><![CDATA[Stationnement face au centre d'animation de Lasson]]></name>
  </wpt>
  <trk>
    <name><![CDATA[Du Chiromme à la Mue]]></name>
    <trkseg>
      <trkpt lat="49.23027" lon="-0.46358">
        <ele>41</ele>
        <time>2021-06-06T13:26:25+02:00</time>
      </trkpt>
      <trkpt lat="49.23086" lon="-0.46313">
        <ele>40</ele>
        <time>2021-06-06T13:26:30+02:00</time>
      </trkpt>
      <trkpt lat="49.23238" lon="-0.46223">
        <ele>43</ele>
        <time>2021-06-06T13:26:35+02:00</time>
      </trkpt>
      <trkpt lat="49.23252" lon="-0.46227">
        <ele>43</ele>
        <time>2021-06-06T13:26:40+02:00</time>
      </trkpt>
      <trkpt lat="49.23275" lon="-0.46258">
        <ele>43</ele>
        <time>2021-06-06T13:26:45+02:00</time>
      </trkpt>
      <trkpt lat="49.23278" lon="-0.4627">
        <ele>43</ele>
        <time>2021-06-06T13:26:50+02:00</time>
      </trkpt>
      <trkpt lat="49.23285" lon="-0.46294">
        <ele>43</ele>
        <time>2021-06-06T13:26:55+02:00</time>
      </trkpt>
      <trkpt lat="49.23301" lon="-0.46322">
        <ele>43</ele>
        <time>2021-06-06T13:27:00+02:00</time>
      </trkpt>
      <trkpt lat="49.23314" lon="-0.46355">
        <ele>44</ele>
        <time>2021-06-06T13:27:05+02:00</time>
      </trkpt>
      <trkpt lat="49.23329" lon="-0.46393">
        <ele>45</ele>
        <time>2021-06-06T13:27:10+02:00</time>
      </trkpt>
      <trkpt lat="49.23341" lon="-0.46431">
        <ele>45</ele>
        <time>2021-06-06T13:27:15+02:00</time>
      </trkpt>
      <trkpt lat="49.23317" lon="-0.46474">
        <ele>45</ele>
        <time>2021-06-06T13:27:20+02:00</time>
      </trkpt>
      <trkpt lat="49.23305" lon="-0.46602">
        <ele>46</ele>
        <time>2021-06-06T13:27:25+02:00</time>
      </trkpt>
      <trkpt lat="49.23275" lon="-0.46742">
        <ele>46</ele>
        <time>2021-06-06T13:27:30+02:00</time>
      </trkpt>
      <trkpt lat="49.23156" lon="-0.46961">
        <ele>49</ele>
        <time>2021-06-06T13:27:35+02:00</time>
      </trkpt>
      <trkpt lat="49.23189" lon="-0.47048">
        <ele>48</ele>
        <time>2021-06-06T13:27:40+02:00</time>
      </trkpt>
      <trkpt lat="49.23216" lon="-0.47103">
        <ele>48</ele>
        <time>2021-06-06T13:27:45+02:00</time>
      </trkpt>
      <trkpt lat="49.23257" lon="-0.47204">
        <ele>48</ele>
        <time>2021-06-06T13:27:50+02:00</time>
      </trkpt>
      <trkpt lat="49.23328" lon="-0.4738">
        <ele>46</ele>
        <time>2021-06-06T13:27:55+02:00</time>
      </trkpt>
      <trkpt lat="49.23405" lon="-0.47574">
        <ele>47</ele>
        <time>2021-06-06T13:28:00+02:00</time>
      </trkpt>
      <trkpt lat="49.23463" lon="-0.47723">
        <ele>47</ele>
        <time>2021-06-06T13:28:05+02:00</time>
      </trkpt>
      <trkpt lat="49.2349" lon="-0.47827">
        <ele>47</ele>
        <time>2021-06-06T13:28:10+02:00</time>
      </trkpt>
      <trkpt lat="49.23544" lon="-0.48027">
        <ele>46</ele>
        <time>2021-06-06T13:28:15+02:00</time>
      </trkpt>
      <trkpt lat="49.23575" lon="-0.48146">
        <ele>46</ele>
        <time>2021-06-06T13:28:20+02:00</time>
      </trkpt>
      <trkpt lat="49.23599" lon="-0.48259">
        <ele>44</ele>
        <time>2021-06-06T13:28:25+02:00</time>
      </trkpt>
      <trkpt lat="49.23609" lon="-0.48314">
        <ele>44</ele>
        <time>2021-06-06T13:28:30+02:00</time>
      </trkpt>
      <trkpt lat="49.23623" lon="-0.484">
        <ele>43</ele>
        <time>2021-06-06T13:28:35+02:00</time>
      </trkpt>
      <trkpt lat="49.2362" lon="-0.48513">
        <ele>43</ele>
        <time>2021-06-06T13:28:40+02:00</time>
      </trkpt>
      <trkpt lat="49.23621" lon="-0.48582">
        <ele>43</ele>
        <time>2021-06-06T13:28:45+02:00</time>
      </trkpt>
      <trkpt lat="49.23554" lon="-0.48581">
        <ele>43</ele>
        <time>2021-06-06T13:28:50+02:00</time>
      </trkpt>
      <trkpt lat="49.23514" lon="-0.48553">
        <ele>42</ele>
        <time>2021-06-06T13:28:55+02:00</time>
      </trkpt>
      <trkpt lat="49.23479" lon="-0.48536">
        <ele>42</ele>
        <time>2021-06-06T13:29:00+02:00</time>
      </trkpt>
      <trkpt lat="49.23425" lon="-0.48502">
        <ele>43</ele>
        <time>2021-06-06T13:29:05+02:00</time>
      </trkpt>
      <trkpt lat="49.23372" lon="-0.48449">
        <ele>43</ele>
        <time>2021-06-06T13:29:10+02:00</time>
      </trkpt>
      <trkpt lat="49.23332" lon="-0.48418">
        <ele>44</ele>
        <time>2021-06-06T13:29:15+02:00</time>
      </trkpt>
      <trkpt lat="49.23299" lon="-0.48401">
        <ele>43</ele>
        <time>2021-06-06T13:29:20+02:00</time>
      </trkpt>
      <trkpt lat="49.23269" lon="-0.48412">
        <ele>42</ele>
        <time>2021-06-06T13:29:25+02:00</time>
      </trkpt>
      <trkpt lat="49.23249" lon="-0.48431">
        <ele>42</ele>
        <time>2021-06-06T13:29:30+02:00</time>
      </trkpt>
      <trkpt lat="49.23218" lon="-0.48499">
        <ele>44</ele>
        <time>2021-06-06T13:29:35+02:00</time>
      </trkpt>
      <trkpt lat="49.23191" lon="-0.48552">
        <ele>44</ele>
        <time>2021-06-06T13:29:40+02:00</time>
      </trkpt>
      <trkpt lat="49.23138" lon="-0.48613">
        <ele>44</ele>
        <time>2021-06-06T13:29:45+02:00</time>
      </trkpt>
      <trkpt lat="49.23109" lon="-0.48661">
        <ele>45</ele>
        <time>2021-06-06T13:29:50+02:00</time>
      </trkpt>
      <trkpt lat="49.23079" lon="-0.48756">
        <ele>45</ele>
        <time>2021-06-06T13:29:55+02:00</time>
      </trkpt>
      <trkpt lat="49.23066" lon="-0.48778">
        <ele>45</ele>
        <time>2021-06-06T13:30:00+02:00</time>
      </trkpt>
      <trkpt lat="49.23016" lon="-0.48829">
        <ele>45</ele>
        <time>2021-06-06T13:30:05+02:00</time>
      </trkpt>
      <trkpt lat="49.22964" lon="-0.48913">
        <ele>46</ele>
        <time>2021-06-06T13:30:10+02:00</time>
      </trkpt>
      <trkpt lat="49.22917" lon="-0.49">
        <ele>44</ele>
        <time>2021-06-06T13:30:15+02:00</time>
      </trkpt>
      <trkpt lat="49.22874" lon="-0.49079">
        <ele>45</ele>
        <time>2021-06-06T13:30:20+02:00</time>
      </trkpt>
      <trkpt lat="49.22819" lon="-0.49162">
        <ele>45</ele>
        <time>2021-06-06T13:30:25+02:00</time>
      </trkpt>
      <trkpt lat="49.22738" lon="-0.4926">
        <ele>46</ele>
        <time>2021-06-06T13:30:30+02:00</time>
      </trkpt>
      <trkpt lat="49.22734" lon="-0.49264">
        <ele>46</ele>
        <time>2021-06-06T13:30:35+02:00</time>
      </trkpt>
      <trkpt lat="49.22712" lon="-0.49238">
        <ele>46</ele>
        <time>2021-06-06T13:30:40+02:00</time>
      </trkpt>
      <trkpt lat="49.22693" lon="-0.49169">
        <ele>47</ele>
        <time>2021-06-06T13:30:45+02:00</time>
      </trkpt>
      <trkpt lat="49.22672" lon="-0.49116">
        <ele>47</ele>
        <time>2021-06-06T13:30:50+02:00</time>
      </trkpt>
      <trkpt lat="49.22658" lon="-0.49076">
        <ele>47</ele>
        <time>2021-06-06T13:30:55+02:00</time>
      </trkpt>
      <trkpt lat="49.22565" lon="-0.49131">
        <ele>48</ele>
        <time>2021-06-06T13:31:00+02:00</time>
      </trkpt>
      <trkpt lat="49.22478" lon="-0.48755">
        <ele>52</ele>
        <time>2021-06-06T13:31:05+02:00</time>
      </trkpt>
      <trkpt lat="49.22376" lon="-0.48343">
        <ele>59</ele>
        <time>2021-06-06T13:31:10+02:00</time>
      </trkpt>
      <trkpt lat="49.22297" lon="-0.48096">
        <ele>55</ele>
        <time>2021-06-06T13:31:15+02:00</time>
      </trkpt>
      <trkpt lat="49.22157" lon="-0.47653">
        <ele>43</ele>
        <time>2021-06-06T13:31:20+02:00</time>
      </trkpt>
      <trkpt lat="49.22139" lon="-0.47648">
        <ele>43</ele>
        <time>2021-06-06T13:31:25+02:00</time>
      </trkpt>
      <trkpt lat="49.2206" lon="-0.47697">
        <ele>43</ele>
        <time>2021-06-06T13:31:30+02:00</time>
      </trkpt>
      <trkpt lat="49.21995" lon="-0.47726">
        <ele>43</ele>
        <time>2021-06-06T13:31:35+02:00</time>
      </trkpt>
      <trkpt lat="49.21968" lon="-0.47728">
        <ele>43</ele>
        <time>2021-06-06T13:31:40+02:00</time>
      </trkpt>
      <trkpt lat="49.21974" lon="-0.47686">
        <ele>44</ele>
        <time>2021-06-06T13:31:45+02:00</time>
      </trkpt>
      <trkpt lat="49.21996" lon="-0.47648">
        <ele>44</ele>
        <time>2021-06-06T13:31:50+02:00</time>
      </trkpt>
      <trkpt lat="49.22015" lon="-0.47618">
        <ele>45</ele>
        <time>2021-06-06T13:31:55+02:00</time>
      </trkpt>
      <trkpt lat="49.22015" lon="-0.47559">
        <ele>46</ele>
        <time>2021-06-06T13:32:00+02:00</time>
      </trkpt>
      <trkpt lat="49.22014" lon="-0.47529">
        <ele>46</ele>
        <time>2021-06-06T13:32:05+02:00</time>
      </trkpt>
      <trkpt lat="49.2196" lon="-0.47316">
        <ele>46</ele>
        <time>2021-06-06T13:32:10+02:00</time>
      </trkpt>
      <trkpt lat="49.21946" lon="-0.47288">
        <ele>45</ele>
        <time>2021-06-06T13:32:15+02:00</time>
      </trkpt>
      <trkpt lat="49.21935" lon="-0.47272">
        <ele>44</ele>
        <time>2021-06-06T13:32:20+02:00</time>
      </trkpt>
      <trkpt lat="49.2192" lon="-0.47282">
        <ele>43</ele>
        <time>2021-06-06T13:32:25+02:00</time>
      </trkpt>
      <trkpt lat="49.21821" lon="-0.47322">
        <ele>43</ele>
        <time>2021-06-06T13:32:30+02:00</time>
      </trkpt>
      <trkpt lat="49.21745" lon="-0.47364">
        <ele>44</ele>
        <time>2021-06-06T13:32:35+02:00</time>
      </trkpt>
      <trkpt lat="49.21619" lon="-0.47436">
        <ele>47</ele>
        <time>2021-06-06T13:32:40+02:00</time>
      </trkpt>
      <trkpt lat="49.21577" lon="-0.47448">
        <ele>48</ele>
        <time>2021-06-06T13:32:45+02:00</time>
      </trkpt>
      <trkpt lat="49.21562" lon="-0.47413">
        <ele>47</ele>
        <time>2021-06-06T13:32:50+02:00</time>
      </trkpt>
      <trkpt lat="49.21552" lon="-0.4741">
        <ele>47</ele>
        <time>2021-06-06T13:32:55+02:00</time>
      </trkpt>
      <trkpt lat="49.21541" lon="-0.47417">
        <ele>48</ele>
        <time>2021-06-06T13:33:00+02:00</time>
      </trkpt>
      <trkpt lat="49.21524" lon="-0.47437">
        <ele>48</ele>
        <time>2021-06-06T13:33:05+02:00</time>
      </trkpt>
      <trkpt lat="49.21496" lon="-0.47474">
        <ele>48</ele>
        <time>2021-06-06T13:33:10+02:00</time>
      </trkpt>
      <trkpt lat="49.21452" lon="-0.47532">
        <ele>48</ele>
        <time>2021-06-06T13:33:15+02:00</time>
      </trkpt>
      <trkpt lat="49.21398" lon="-0.47597">
        <ele>49</ele>
        <time>2021-06-06T13:33:20+02:00</time>
      </trkpt>
      <trkpt lat="49.21376" lon="-0.47622">
        <ele>49</ele>
        <time>2021-06-06T13:33:25+02:00</time>
      </trkpt>
      <trkpt lat="49.21355" lon="-0.47658">
        <ele>48</ele>
        <time>2021-06-06T13:33:30+02:00</time>
      </trkpt>
      <trkpt lat="49.21319" lon="-0.4771">
        <ele>48</ele>
        <time>2021-06-06T13:33:35+02:00</time>
      </trkpt>
      <trkpt lat="49.21292" lon="-0.47736">
        <ele>48</ele>
        <time>2021-06-06T13:33:40+02:00</time>
      </trkpt>
      <trkpt lat="49.21259" lon="-0.47756">
        <ele>47</ele>
        <time>2021-06-06T13:33:45+02:00</time>
      </trkpt>
      <trkpt lat="49.21246" lon="-0.47763">
        <ele>47</ele>
        <time>2021-06-06T13:33:50+02:00</time>
      </trkpt>
      <trkpt lat="49.21224" lon="-0.47772">
        <ele>47</ele>
        <time>2021-06-06T13:33:55+02:00</time>
      </trkpt>
      <trkpt lat="49.21221" lon="-0.47764">
        <ele>47</ele>
        <time>2021-06-06T13:34:00+02:00</time>
      </trkpt>
      <trkpt lat="49.21201" lon="-0.47748">
        <ele>48</ele>
        <time>2021-06-06T13:34:05+02:00</time>
      </trkpt>
      <trkpt lat="49.21169" lon="-0.47724">
        <ele>48</ele>
        <time>2021-06-06T13:34:10+02:00</time>
      </trkpt>
      <trkpt lat="49.21156" lon="-0.47715">
        <ele>48</ele>
        <time>2021-06-06T13:34:15+02:00</time>
      </trkpt>
      <trkpt lat="49.21147" lon="-0.47706">
        <ele>48</ele>
        <time>2021-06-06T13:34:20+02:00</time>
      </trkpt>
      <trkpt lat="49.21135" lon="-0.47667">
        <ele>49</ele>
        <time>2021-06-06T13:34:25+02:00</time>
      </trkpt>
      <trkpt lat="49.21106" lon="-0.47579">
        <ele>54</ele>
        <time>2021-06-06T13:34:30+02:00</time>
      </trkpt>
      <trkpt lat="49.21099" lon="-0.47551">
        <ele>54</ele>
        <time>2021-06-06T13:34:35+02:00</time>
      </trkpt>
      <trkpt lat="49.21098" lon="-0.47542">
        <ele>54</ele>
        <time>2021-06-06T13:34:40+02:00</time>
      </trkpt>
      <trkpt lat="49.21111" lon="-0.47534">
        <ele>54</ele>
        <time>2021-06-06T13:34:45+02:00</time>
      </trkpt>
      <trkpt lat="49.21169" lon="-0.47484">
        <ele>52</ele>
        <time>2021-06-06T13:34:50+02:00</time>
      </trkpt>
      <trkpt lat="49.212" lon="-0.47462">
        <ele>52</ele>
        <time>2021-06-06T13:34:55+02:00</time>
      </trkpt>
      <trkpt lat="49.21221" lon="-0.47454">
        <ele>51</ele>
        <time>2021-06-06T13:35:00+02:00</time>
      </trkpt>
      <trkpt lat="49.21238" lon="-0.47448">
        <ele>50</ele>
        <time>2021-06-06T13:35:05+02:00</time>
      </trkpt>
      <trkpt lat="49.21254" lon="-0.47434">
        <ele>49</ele>
        <time>2021-06-06T13:35:10+02:00</time>
      </trkpt>
      <trkpt lat="49.21268" lon="-0.47411">
        <ele>49</ele>
        <time>2021-06-06T13:35:15+02:00</time>
      </trkpt>
      <trkpt lat="49.21277" lon="-0.47393">
        <ele>48</ele>
        <time>2021-06-06T13:35:20+02:00</time>
      </trkpt>
      <trkpt lat="49.21284" lon="-0.47376">
        <ele>48</ele>
        <time>2021-06-06T13:35:25+02:00</time>
      </trkpt>
      <trkpt lat="49.21287" lon="-0.47357">
        <ele>48</ele>
        <time>2021-06-06T13:35:30+02:00</time>
      </trkpt>
      <trkpt lat="49.21289" lon="-0.47331">
        <ele>48</ele>
        <time>2021-06-06T13:35:35+02:00</time>
      </trkpt>
      <trkpt lat="49.21295" lon="-0.47293">
        <ele>48</ele>
        <time>2021-06-06T13:35:40+02:00</time>
      </trkpt>
      <trkpt lat="49.21304" lon="-0.47258">
        <ele>48</ele>
        <time>2021-06-06T13:35:45+02:00</time>
      </trkpt>
      <trkpt lat="49.21316" lon="-0.47226">
        <ele>48</ele>
        <time>2021-06-06T13:35:50+02:00</time>
      </trkpt>
      <trkpt lat="49.21328" lon="-0.47203">
        <ele>48</ele>
        <time>2021-06-06T13:35:55+02:00</time>
      </trkpt>
      <trkpt lat="49.21351" lon="-0.47136">
        <ele>49</ele>
        <time>2021-06-06T13:36:00+02:00</time>
      </trkpt>
      <trkpt lat="49.21397" lon="-0.47035">
        <ele>45</ele>
        <time>2021-06-06T13:36:05+02:00</time>
      </trkpt>
      <trkpt lat="49.21423" lon="-0.4697">
        <ele>45</ele>
        <time>2021-06-06T13:36:10+02:00</time>
      </trkpt>
      <trkpt lat="49.21438" lon="-0.46949">
        <ele>45</ele>
        <time>2021-06-06T13:36:15+02:00</time>
      </trkpt>
      <trkpt lat="49.21475" lon="-0.46918">
        <ele>45</ele>
        <time>2021-06-06T13:36:20+02:00</time>
      </trkpt>
      <trkpt lat="49.21536" lon="-0.46866">
        <ele>48</ele>
        <time>2021-06-06T13:36:25+02:00</time>
      </trkpt>
      <trkpt lat="49.21564" lon="-0.46836">
        <ele>49</ele>
        <time>2021-06-06T13:36:30+02:00</time>
      </trkpt>
      <trkpt lat="49.21593" lon="-0.46804">
        <ele>50</ele>
        <time>2021-06-06T13:36:35+02:00</time>
      </trkpt>
      <trkpt lat="49.21623" lon="-0.46775">
        <ele>50</ele>
        <time>2021-06-06T13:36:40+02:00</time>
      </trkpt>
      <trkpt lat="49.21634" lon="-0.46773">
        <ele>50</ele>
        <time>2021-06-06T13:36:45+02:00</time>
      </trkpt>
      <trkpt lat="49.21663" lon="-0.46765">
        <ele>49</ele>
        <time>2021-06-06T13:36:50+02:00</time>
      </trkpt>
      <trkpt lat="49.21685" lon="-0.46765">
        <ele>48</ele>
        <time>2021-06-06T13:36:55+02:00</time>
      </trkpt>
      <trkpt lat="49.21734" lon="-0.46777">
        <ele>47</ele>
        <time>2021-06-06T13:37:00+02:00</time>
      </trkpt>
      <trkpt lat="49.21805" lon="-0.46779">
        <ele>47</ele>
        <time>2021-06-06T13:37:05+02:00</time>
      </trkpt>
      <trkpt lat="49.21883" lon="-0.46763">
        <ele>45</ele>
        <time>2021-06-06T13:37:10+02:00</time>
      </trkpt>
      <trkpt lat="49.21979" lon="-0.46744">
        <ele>45</ele>
        <time>2021-06-06T13:37:15+02:00</time>
      </trkpt>
      <trkpt lat="49.22085" lon="-0.46703">
        <ele>44</ele>
        <time>2021-06-06T13:37:20+02:00</time>
      </trkpt>
      <trkpt lat="49.2214" lon="-0.4668">
        <ele>44</ele>
        <time>2021-06-06T13:37:25+02:00</time>
      </trkpt>
      <trkpt lat="49.22179" lon="-0.46656">
        <ele>44</ele>
        <time>2021-06-06T13:37:30+02:00</time>
      </trkpt>
      <trkpt lat="49.22276" lon="-0.46611">
        <ele>46</ele>
        <time>2021-06-06T13:37:35+02:00</time>
      </trkpt>
      <trkpt lat="49.2234" lon="-0.46566">
        <ele>45</ele>
        <time>2021-06-06T13:37:40+02:00</time>
      </trkpt>
      <trkpt lat="49.22396" lon="-0.46514">
        <ele>43</ele>
        <time>2021-06-06T13:37:45+02:00</time>
      </trkpt>
      <trkpt lat="49.22447" lon="-0.4647">
        <ele>42</ele>
        <time>2021-06-06T13:37:50+02:00</time>
      </trkpt>
      <trkpt lat="49.22478" lon="-0.4646">
        <ele>42</ele>
        <time>2021-06-06T13:37:55+02:00</time>
      </trkpt>
      <trkpt lat="49.2251" lon="-0.46431">
        <ele>42</ele>
        <time>2021-06-06T13:38:00+02:00</time>
      </trkpt>
      <trkpt lat="49.22613" lon="-0.46311">
        <ele>41</ele>
        <time>2021-06-06T13:38:05+02:00</time>
      </trkpt>
      <trkpt lat="49.22623" lon="-0.46295">
        <ele>41</ele>
        <time>2021-06-06T13:38:10+02:00</time>
      </trkpt>
      <trkpt lat="49.22597" lon="-0.46232">
        <ele>42</ele>
        <time>2021-06-06T13:38:15+02:00</time>
      </trkpt>
      <trkpt lat="49.22585" lon="-0.46192">
        <ele>43</ele>
        <time>2021-06-06T13:38:20+02:00</time>
      </trkpt>
      <trkpt lat="49.2257" lon="-0.46137">
        <ele>45</ele>
        <time>2021-06-06T13:38:25+02:00</time>
      </trkpt>
      <trkpt lat="49.22597" lon="-0.46113">
        <ele>45</ele>
        <time>2021-06-06T13:38:30+02:00</time>
      </trkpt>
      <trkpt lat="49.22693" lon="-0.46025">
        <ele>46</ele>
        <time>2021-06-06T13:38:35+02:00</time>
      </trkpt>
      <trkpt lat="49.2271" lon="-0.45962">
        <ele>46</ele>
        <time>2021-06-06T13:38:40+02:00</time>
      </trkpt>
      <trkpt lat="49.2272" lon="-0.45933">
        <ele>46</ele>
        <time>2021-06-06T13:38:45+02:00</time>
      </trkpt>
      <trkpt lat="49.22785" lon="-0.45877">
        <ele>46</ele>
        <time>2021-06-06T13:38:50+02:00</time>
      </trkpt>
      <trkpt lat="49.22809" lon="-0.45914">
        <ele>45</ele>
        <time>2021-06-06T13:38:55+02:00</time>
      </trkpt>
      <trkpt lat="49.22816" lon="-0.45902">
        <ele>45</ele>
        <time>2021-06-06T13:39:00+02:00</time>
      </trkpt>
      <trkpt lat="49.22832" lon="-0.45926">
        <ele>44</ele>
        <time>2021-06-06T13:39:05+02:00</time>
      </trkpt>
      <trkpt lat="49.22846" lon="-0.45944">
        <ele>44</ele>
        <time>2021-06-06T13:39:10+02:00</time>
      </trkpt>
      <trkpt lat="49.22886" lon="-0.46009">
        <ele>43</ele>
        <time>2021-06-06T13:39:15+02:00</time>
      </trkpt>
      <trkpt lat="49.2291" lon="-0.46044">
        <ele>42</ele>
        <time>2021-06-06T13:39:20+02:00</time>
      </trkpt>
      <trkpt lat="49.22935" lon="-0.46084">
        <ele>41</ele>
        <time>2021-06-06T13:39:25+02:00</time>
      </trkpt>
      <trkpt lat="49.22954" lon="-0.46124">
        <ele>41</ele>
        <time>2021-06-06T13:39:30+02:00</time>
      </trkpt>
      <trkpt lat="49.22971" lon="-0.46151">
        <ele>40</ele>
        <time>2021-06-06T13:39:35+02:00</time>
      </trkpt>
      <trkpt lat="49.23014" lon="-0.46184">
        <ele>39</ele>
        <time>2021-06-06T13:39:40+02:00</time>
      </trkpt>
      <trkpt lat="49.2303" lon="-0.46216">
        <ele>39</ele>
        <time>2021-06-06T13:39:45+02:00</time>
      </trkpt>
      <trkpt lat="49.23045" lon="-0.46252">
        <ele>39</ele>
        <time>2021-06-06T13:39:50+02:00</time>
      </trkpt>
      <trkpt lat="49.23065" lon="-0.46301">
        <ele>40</ele>
        <time>2021-06-06T13:39:55+02:00</time>
      </trkpt>
      <trkpt lat="49.23071" lon="-0.46318">
        <ele>40</ele>
        <time>2021-06-06T13:40:00+02:00</time>
      </trkpt>
      <trkpt lat="49.23028" lon="-0.46353">
        <ele>41</ele>
        <time>2021-06-06T13:40:05+02:00</time>
      </trkpt>
    </trkseg>
  </trk>
</gpx>